Time;durP1;ratioP1;P1;durP2;ratioP2;P2;SDS_P1;SDS_P2;PMS_P1;PMS_P2;Temp;Humidity;BMP_temperature;BMP_pressure;BME280_temperature;BME280_humidity;BME280_pressure;Samples;Min_cycle;Max_cycle;Signal;HPM_P1;HPM_P2
2022/06/14 00:08:25;;;;;;;2.07;1.20;;;;;;;25.18;41.22;100463.31;20817325;27;99260;-77
2022/06/14 00:18:25;;;;;;;1.45;1.27;;;;;;;25.21;40.87;100478.09;20819054;27;98054;-78
2022/06/14 00:28:28;;;;;;;1.27;1.00;;;;;;;25.21;40.99;100478.09;20822060;27;97179;-77
2022/06/14 00:38:29;;;;;;;1.92;1.10;;;;;;;25.21;40.79;100509.91;20823826;27;98163;-78
2022/06/14 00:48:32;;;;;;;2.10;1.30;;;;;;;25.21;41.04;100501.94;20809340;27;96966;-77
2022/06/14 00:58:42;;;;;;;2.60;1.40;;;;;;;25.20;40.98;100524.13;20833546;27;99585;-78
2022/06/14 01:09:04;;;;;;;1.58;1.13;;;;;;;25.20;40.73;100542.69;20845170;27;99120;-78
2022/06/14 01:19:09;;;;;;;1.65;1.27;;;;;;;25.21;40.57;100541.69;20857210;27;97106;-78
2022/06/14 01:29:11;;;;;;;2.72;1.40;;;;;;;25.18;40.36;100553.44;20856559;27;97046;-78
2022/06/14 01:39:16;;;;;;;1.93;1.30;;;;;;;25.19;40.50;100559.56;20848712;27;96927;-78
2022/06/14 02:00:51;;;;;;;1.58;1.08;;;;;;;25.18;40.34;100571.13;20852141;27;97314;-77
2022/06/14 02:11:16;;;;;;;2.50;1.40;;;;;;;25.17;40.55;100572.09;20846574;27;98207;-77
2022/06/14 02:21:33;;;;;;;2.42;1.30;;;;;;;25.16;40.61;100589.81;20850705;27;96997;-76
2022/06/14 02:31:45;;;;;;;2.47;1.30;;;;;;;25.16;40.48;100589.81;20845602;27;101547;-77
2022/06/14 02:42:21;;;;;;;1.77;1.20;;;;;;;25.14;40.46;100596.25;20854552;27;97587;-77
2022/06/14 02:52:36;;;;;;;2.58;1.60;;;;;;;25.13;40.41;100605.97;20828778;27;98795;-77
2022/06/14 03:02:50;;;;;;;1.95;1.20;;;;;;;25.12;40.27;100622.03;20842625;27;101386;-78
2022/06/14 03:13:52;;;;;;;2.35;1.40;;;;;;;25.12;40.40;100627.31;20847383;27;97996;-78
2022/06/14 03:24:08;;;;;;;3.00;1.50;;;;;;;25.12;40.30;100637.94;20729136;27;99629;-78
2022/06/14 03:34:43;;;;;;;6.10;1.30;;;;;;;25.07;40.27;100635.69;20836924;27;101525;-79
2022/06/14 03:44:43;;;;;;;2.15;1.40;;;;;;;25.07;40.15;100644.50;20834477;27;100069;-77
2022/06/14 03:54:58;;;;;;;2.88;1.60;;;;;;;25.08;39.96;100638.22;20833657;27;97741;-78
2022/06/14 04:05:08;;;;;;;1.75;1.63;;;;;;;25.02;40.33;100657.28;20830292;27;97311;-77
2022/06/14 04:15:18;;;;;;;4.32;1.50;;;;;;;25.00;40.94;100671.66;20822119;27;100446;-77
2022/06/14 04:25:25;;;;;;;3.83;1.70;;;;;;;23.79;38.12;100676.66;20835612;27;98151;-78
2022/06/14 04:35:45;;;;;;;4.30;2.00;;;;;;;22.29;40.35;100700.03;20846705;27;98949;-78
2022/06/14 04:46:07;;;;;;;4.88;2.35;;;;;;;21.68;42.58;100713.41;20844984;27;97079;-81
2022/06/14 04:56:15;;;;;;;6.67;2.30;;;;;;;21.21;43.34;100724.66;20855982;27;98589;-77
2022/06/14 05:06:28;;;;;;;6.72;2.33;;;;;;;21.40;42.99;100728.63;20862994;27;96908;-79
2022/06/14 05:16:40;;;;;;;6.43;2.20;;;;;;;21.39;43.32;100743.56;20853363;27;97866;-77
2022/06/14 05:27:21;;;;;;;4.63;2.40;;;;;;;21.49;42.77;100750.81;20850197;27;97029;-79
2022/06/14 05:37:48;;;;;;;8.05;2.13;;;;;;;21.62;43.13;100748.13;20861685;27;100945;-79
2022/06/14 05:48:02;;;;;;;4.70;1.90;;;;;;;21.72;43.28;100754.41;20862912;27;96830;-81
2022/06/14 05:58:20;;;;;;;6.13;2.00;;;;;;;22.58;41.82;100752.34;20895413;27;98636;-82
2022/06/14 06:08:37;;;;;;;4.95;2.00;;;;;;;22.37;41.78;100760.13;20886615;27;96776;-82
2022/06/14 06:18:37;;;;;;;5.05;1.90;;;;;;;22.97;41.68;100771.34;20899272;27;97818;-80
2022/06/14 06:28:54;;;;;;;3.15;1.70;;;;;;;23.27;41.36;100782.25;20893266;27;97335;-81
2022/06/14 06:39:08;;;;;;;2.03;1.80;;;;;;;23.48;41.39;100784.97;20887502;27;97028;-81
2022/06/14 06:49:12;;;;;;;3.03;1.85;;;;;;;23.63;41.17;100789.00;20874424;27;98478;-81
2022/06/14 06:59:43;;;;;;;3.97;1.65;;;;;;;23.78;40.95;100786.09;20866520;27;98124;-78
2022/06/14 07:09:55;;;;;;;4.60;1.70;;;;;;;23.89;40.76;100777.22;20851171;27;97417;-78
2022/06/14 07:20:05;;;;;;;10.30;1.75;;;;;;;23.99;41.07;100783.47;20857233;27;97231;-79
2022/06/14 07:30:07;;;;;;;3.35;1.98;;;;;;;24.11;40.31;100782.44;20845399;27;97564;-80
2022/06/14 07:40:30;;;;;;;2.90;1.38;;;;;;;24.21;40.44;100784.34;20888712;27;97788;-79
2022/06/14 07:50:49;;;;;;;3.58;1.75;;;;;;;24.28;40.34;100774.91;20875058;27;98701;-80
2022/06/14 08:01:09;;;;;;;4.13;1.52;;;;;;;24.34;40.51;100777.03;20875471;27;100753;-82
2022/06/14 08:11:15;;;;;;;4.22;1.75;;;;;;;24.36;40.12;100776.91;20876975;27;97272;-81
2022/06/14 08:21:24;;;;;;;4.40;1.63;;;;;;;24.39;40.49;100780.13;20908242;27;100867;-82
2022/06/14 08:31:46;;;;;;;2.92;1.35;;;;;;;24.42;40.51;100774.56;20883706;27;101938;-82
2022/06/14 08:42:28;;;;;;;2.00;1.60;;;;;;;24.45;40.72;100769.00;20889421;27;97665;-82
2022/06/14 08:52:53;;;;;;;4.32;1.30;;;;;;;24.51;40.98;100777.41;20874658;27;98110;-82
2022/06/14 09:03:11;;;;;;;6.07;1.60;;;;;;;24.09;32.85;100783.56;20875044;27;97022;-80
2022/06/14 09:13:51;;;;;;;5.03;1.60;;;;;;;23.97;31.04;100782.75;20884170;27;97812;-80
2022/06/14 09:24:19;;;;;;;3.83;1.67;;;;;;;23.75;30.96;100781.84;20870041;27;97102;-79
2022/06/14 09:34:40;;;;;;;2.17;1.30;;;;;;;23.63;31.37;100775.78;20900957;27;97377;-79
2022/06/14 09:44:56;;;;;;;3.37;1.57;;;;;;;23.67;29.85;100771.09;20882758;27;98227;-80
2022/06/14 09:55:21;;;;;;;6.13;1.67;;;;;;;23.53;29.65;100763.44;20909337;27;96929;-79
2022/06/14 10:05:40;;;;;;;3.75;1.55;;;;;;;23.69;30.70;100763.03;20861518;27;97114;-79
2022/06/14 10:15:50;;;;;;;4.10;1.50;;;;;;;23.76;31.96;100765.03;20876223;27;96953;-80
2022/06/14 10:36:57;;;;;;;4.10;2.10;;;;;;;23.90;31.43;100739.25;20864884;27;96904;-79
2022/06/14 10:47:24;;;;;;;5.47;1.90;;;;;;;23.82;31.07;100740.72;20868284;27;97753;-78
2022/06/14 10:58:16;;;;;;;4.90;1.90;;;;;;;24.07;30.99;100744.00;20850708;27;98319;-78
2022/06/14 11:08:39;;;;;;;3.50;2.20;;;;;;;24.13;30.53;100724.13;20840668;27;100966;-77
2022/06/14 11:19:35;;;;;;;5.10;1.63;;;;;;;24.34;31.19;100721.47;20854311;27;97065;-77
2022/06/14 11:29:56;;;;;;;8.55;2.10;;;;;;;24.34;31.36;100742.63;20858138;27;100444;-79
2022/06/14 11:40:14;;;;;;;5.20;1.75;;;;;;;24.39;31.14;100731.63;20869720;27;98987;-78
2022/06/14 11:50:41;;;;;;;3.97;1.40;;;;;;;24.46;30.24;100731.00;20869011;27;98462;-81
2022/06/14 12:01:07;;;;;;;5.75;1.80;;;;;;;24.63;30.18;100733.97;20869118;27;97201;-79
2022/06/14 12:11:18;;;;;;;5.50;1.67;;;;;;;24.73;29.73;100737.53;20829141;27;98887;-77
2022/06/14 12:21:25;;;;;;;3.87;1.53;;;;;;;25.05;29.59;100712.66;20856753;27;100809;-78
2022/06/14 12:31:54;;;;;;;2.38;1.60;;;;;;;25.16;28.66;100724.97;20841783;27;97459;-79
2022/06/14 12:42:16;;;;;;;3.10;1.67;;;;;;;25.15;28.14;100717.16;20849297;27;99349;-80
2022/06/14 12:52:25;;;;;;;4.77;1.97;;;;;;;24.96;28.50;100710.00;20854210;27;98244;-81
2022/06/14 13:02:40;;;;;;;3.25;1.77;;;;;;;25.17;30.23;100709.88;20857906;27;98474;-79
2022/06/14 13:13:08;;;;;;;5.82;1.95;;;;;;;25.40;31.27;100697.25;20865536;27;96868;-80
2022/06/14 13:23:20;;;;;;;2.97;1.67;;;;;;;25.46;29.94;100696.69;20863701;27;97840;-79
2022/06/14 13:33:23;;;;;;;7.25;1.95;;;;;;;25.64;29.28;100693.34;20875423;27;97038;-79
2022/06/14 13:43:55;;;;;;;2.55;1.40;;;;;;;25.71;29.16;100674.06;20861960;27;97036;-79
2022/06/14 13:54:28;;;;;;;3.80;1.58;;;;;;;25.81;29.84;100671.38;20850230;27;98035;-79
2022/06/14 14:04:46;;;;;;;3.10;1.40;;;;;;;25.82;30.50;100672.25;20854720;27;98214;-78
2022/06/14 14:15:14;;;;;;;3.28;1.52;;;;;;;25.84;29.05;100665.81;20874834;27;97602;-79
2022/06/14 14:25:33;;;;;;;4.28;2.90;;;;;;;25.87;29.01;100654.91;20866991;27;97015;-80
2022/06/14 14:35:39;;;;;;;7.55;2.38;;;;;;;25.89;29.85;100652.94;20886826;27;96964;-80
2022/06/14 14:45:47;;;;;;;4.18;2.00;;;;;;;25.97;30.14;100632.81;20869248;27;97044;-79
2022/06/14 14:55:55;;;;;;;4.13;1.63;;;;;;;25.95;27.95;100642.72;20881668;27;97020;-80
2022/06/14 15:05:59;;;;;;;4.88;1.55;;;;;;;25.97;28.39;100635.47;20874892;27;99074;-83
2022/06/14 15:16:11;;;;;;;2.45;1.45;;;;;;;26.02;29.96;100633.22;20870448;27;100756;-78
2022/06/14 15:26:16;;;;;;;2.25;1.25;;;;;;;25.99;27.52;100631.69;20860959;27;97827;-79
2022/06/14 15:36:33;;;;;;;3.10;1.20;;;;;;;26.06;28.23;100626.63;20835352;27;98695;-79
2022/06/14 15:46:35;;;;;;;3.03;1.08;;;;;;;26.05;26.40;100625.81;20849601;27;97757;-82
2022/06/14 15:56:50;;;;;;;3.28;1.50;;;;;;;26.01;26.29;100621.78;20853396;27;97931;-81
2022/06/14 16:06:56;;;;;;;2.95;1.05;;;;;;;25.98;26.28;100618.59;20865585;27;97110;-83
2022/06/14 16:17:04;;;;;;;4.15;1.20;;;;;;;25.95;26.97;100611.75;20839989;27;98118;-80
2022/06/14 16:27:32;;;;;;;48.25;30.92;;;;;;;25.95;26.96;100618.84;20817144;27;97288;-77
2022/06/14 16:37:47;;;;;;;4.90;3.40;;;;;;;25.95;27.15;100610.91;20828749;27;98086;-78
2022/06/14 16:48:04;;;;;;;22.35;13.45;;;;;;;25.92;27.50;100600.59;20840974;27;98166;-77
2022/06/14 16:58:11;;;;;;;4.00;2.25;;;;;;;25.87;27.26;100598.38;20819330;27;97735;-77
2022/06/14 17:08:17;;;;;;;7.55;1.92;;;;;;;25.85;27.18;100600.31;20836760;27;96964;-77
2022/06/14 17:18:46;;;;;;;2.15;1.20;;;;;;;25.71;27.00;100607.75;20819609;27;97694;-77
2022/06/14 17:39:20;;;;;;;3.40;1.00;;;;;;;25.55;27.74;100621.59;20811542;27;98706;-77
2022/06/14 17:49:37;;;;;;;2.63;1.17;;;;;;;24.96;27.76;100631.34;20844243;27;98999;-79
2022/06/14 18:00:04;;;;;;;1.83;1.00;;;;;;;24.89;28.63;100628.44;20896358;27;96860;-78
2022/06/14 18:10:05;;;;;;;6.57;2.47;;;;;;;24.59;28.70;100631.97;20881622;27;98018;-80
2022/06/14 18:30:45;;;;;;;3.42;2.25;;;;;;;24.25;29.86;100632.28;20858243;27;98624;-79
2022/06/14 18:40:46;;;;;;;1.95;1.20;;;;;;;23.85;30.76;100647.06;20836975;27;98750;-78
2022/06/14 18:50:55;;;;;;;1.35;1.10;;;;;;;23.95;30.55;100655.13;20868057;27;97820;-80
2022/06/14 19:01:21;;;;;;;1.70;1.20;;;;;;;24.04;30.51;100662.25;20857443;27;100769;-81
2022/06/14 19:11:34;;;;;;;1.88;1.00;;;;;;;23.97;31.07;100667.25;20868828;27;99665;-80
2022/06/14 19:22:19;;;;;;;2.75;1.10;;;;;;;23.56;31.74;100668.88;20828428;27;99871;-83
2022/06/14 19:32:45;;;;;;;4.43;2.30;;;;;;;23.61;32.16;100679.06;20797305;27;101653;-80
2022/06/14 19:42:49;;;;;;;3.70;2.00;;;;;;;24.17;31.68;100680.56;20823053;27;101278;-84
2022/06/14 19:52:53;;;;;;;4.15;2.10;;;;;;;24.42;31.77;100689.03;20859865;27;97528;-81
2022/06/14 20:02:54;;;;;;;2.10;1.60;;;;;;;24.53;32.35;100690.75;20879942;27;97247;-81
2022/06/14 20:12:54;;;;;;;2.42;1.75;;;;;;;24.62;32.89;100700.53;20859531;27;98255;-80
2022/06/14 20:22:56;;;;;;;2.27;1.60;;;;;;;24.68;33.04;100691.25;20842684;27;98345;-79
2022/06/14 20:33:00;;;;;;;3.65;1.70;;;;;;;24.69;33.38;100690.28;20869102;27;98035;-80
2022/06/14 20:43:02;;;;;;;3.20;1.75;;;;;;;24.72;33.63;100690.03;20890678;27;97025;-80
2022/06/14 20:53:05;;;;;;;3.28;1.58;;;;;;;24.78;33.49;100702.72;20882749;27;97719;-80
2022/06/14 21:03:11;;;;;;;1.90;1.52;;;;;;;24.85;33.92;100710.94;20874786;27;98131;-82
2022/06/14 21:13:11;;;;;;;2.10;1.40;;;;;;;24.82;33.47;100709.41;20857535;27;100803;-81
2022/06/14 21:23:19;;;;;;;2.65;1.45;;;;;;;24.88;33.96;100710.69;20863421;27;99449;-80
2022/06/14 21:33:19;;;;;;;1.92;1.38;;;;;;;24.91;33.85;100732.44;20875738;27;97603;-81
2022/06/14 21:43:24;;;;;;;1.48;1.15;;;;;;;24.90;34.23;100744.00;20871542;27;98585;-81
2022/06/14 21:53:28;;;;;;;1.80;1.35;;;;;;;24.94;34.24;100744.59;20871247;27;99230;-80
2022/06/14 22:03:46;;;;;;;2.75;1.38;;;;;;;24.91;34.57;100748.34;20851782;27;98026;-80
2022/06/14 22:13:48;;;;;;;2.17;1.20;;;;;;;24.93;34.54;100749.03;20876338;27;99906;-79
2022/06/14 22:34:16;;;;;;;2.65;1.33;;;;;;;24.96;34.60;100755.03;20868774;27;98545;-80
2022/06/14 22:44:17;;;;;;;1.65;0.95;;;;;;;24.96;34.46;100757.69;20878686;27;100226;-81
2022/06/14 22:54:17;;;;;;;2.20;1.27;;;;;;;24.98;34.78;100745.16;20882790;27;98521;-80
2022/06/14 23:04:18;;;;;;;1.00;0.90;;;;;;;24.97;34.69;100746.94;20877739;27;100897;-81
2022/06/14 23:14:18;;;;;;;1.20;1.00;;;;;;;24.97;34.89;100752.25;20851484;27;101160;-80
2022/06/14 23:24:20;;;;;;;1.10;1.00;;;;;;;24.97;34.82;100746.13;20865360;27;98126;-80
2022/06/14 23:34:20;;;;;;;1.77;1.40;;;;;;;24.96;35.02;100749.75;20857648;27;97824;-80
2022/06/14 23:44:21;;;;;;;1.25;1.02;;;;;;;24.95;34.62;100743.63;20860635;27;100487;-81
2022/06/14 23:54:23;;;;;;;1.23;1.00;;;;;;;24.96;34.76;100757.69;20874341;27;99631;-81
